sensor_id;sensor_type;location;lat;lon;timestamp;temperature;humidity
59146;DHT22;44928;53.074;6.646;2023-02-11T00:01:43;6.80;99.90
59146;DHT22;44928;53.074;6.646;2023-02-11T00:04:09;6.80;99.90
59146;DHT22;44928;53.074;6.646;2023-02-11T00:06:35;6.80;99.90
59146;DHT22;44928;53.074;6.646;2023-02-11T00:09:01;6.80;99.90
59146;DHT22;44928;53.074;6.646;2023-02-11T00:11:28;6.80;99.90
59146;DHT22;44928;53.074;6.646;2023-02-11T00:13:58;6.90;99.90
59146;DHT22;44928;53.074;6.646;2023-02-11T00:16:24;6.90;99.90
59146;DHT22;44928;53.074;6.646;2023-02-11T00:18:50;6.90;99.90
59146;DHT22;44928;53.074;6.646;2023-02-11T00:21:22;6.90;99.90
59146;DHT22;44928;53.074;6.646;2023-02-11T00:23:48;6.90;99.90
59146;DHT22;44928;53.074;6.646;2023-02-11T00:26:25;6.90;99.90
59146;DHT22;44928;53.074;6.646;2023-02-11T00:28:52;6.90;99.90
59146;DHT22;44928;53.074;6.646;2023-02-11T00:31:20;6.90;99.90
59146;DHT22;44928;53.074;6.646;2023-02-11T00:33:46;6.90;99.90
59146;DHT22;44928;53.074;6.646;2023-02-11T00:36:15;7.00;99.90
59146;DHT22;44928;53.074;6.646;2023-02-11T00:38:44;6.90;99.90
59146;DHT22;44928;53.074;6.646;2023-02-11T00:41:12;6.90;99.90
59146;DHT22;44928;53.074;6.646;2023-02-11T00:43:38;7.00;99.90
59146;DHT22;44928;53.074;6.646;2023-02-11T00:46:04;7.00;99.90
59146;DHT22;44928;53.074;6.646;2023-02-11T00:48:31;7.00;99.90
59146;DHT22;44928;53.074;6.646;2023-02-11T00:50:57;7.00;99.90
59146;DHT22;44928;53.074;6.646;2023-02-11T00:53:22;7.00;99.90
59146;DHT22;44928;53.074;6.646;2023-02-11T00:55:48;6.90;99.90
59146;DHT22;44928;53.074;6.646;2023-02-11T00:58:14;6.90;99.90
59146;DHT22;44928;53.074;6.646;2023-02-11T01:00:40;6.90;99.90
59146;DHT22;44928;53.074;6.646;2023-02-11T01:03:05;6.90;99.90
59146;DHT22;44928;53.074;6.646;2023-02-11T01:05:31;6.80;99.90
59146;DHT22;44928;53.074;6.646;2023-02-11T01:07:58;6.80;99.90
59146;DHT22;44928;53.074;6.646;2023-02-11T01:10:24;6.80;99.90
59146;DHT22;44928;53.074;6.646;2023-02-11T01:12:50;6.80;99.90
59146;DHT22;44928;53.074;6.646;2023-02-11T01:15:17;6.80;99.90
59146;DHT22;44928;53.074;6.646;2023-02-11T01:17:43;6.80;99.90
59146;DHT22;44928;53.074;6.646;2023-02-11T01:20:14;6.80;99.90
59146;DHT22;44928;53.074;6.646;2023-02-11T01:22:40;6.80;99.90
59146;DHT22;44928;53.074;6.646;2023-02-11T01:25:06;6.80;99.90
59146;DHT22;44928;53.074;6.646;2023-02-11T01:27:32;6.80;99.90
59146;DHT22;44928;53.074;6.646;2023-02-11T01:29:58;6.80;99.90
59146;DHT22;44928;53.074;6.646;2023-02-11T01:32:24;6.80;99.90
59146;DHT22;44928;53.074;6.646;2023-02-11T01:34:50;6.80;99.90
59146;DHT22;44928;53.074;6.646;2023-02-11T01:37:16;6.70;99.90
59146;DHT22;44928;53.074;6.646;2023-02-11T01:39:41;6.70;99.90
59146;DHT22;44928;53.074;6.646;2023-02-11T01:42:14;6.60;99.90
59146;DHT22;44928;53.074;6.646;2023-02-11T01:44:40;6.60;99.90
59146;DHT22;44928;53.074;6.646;2023-02-11T01:47:06;6.60;99.90
59146;DHT22;44928;53.074;6.646;2023-02-11T01:49:46;6.60;99.90
59146;DHT22;44928;53.074;6.646;2023-02-11T01:52:25;6.60;99.90
59146;DHT22;44928;53.074;6.646;2023-02-11T01:54:56;6.50;99.90
59146;DHT22;44928;53.074;6.646;2023-02-11T01:57:45;6.50;99.90
59146;DHT22;44928;53.074;6.646;2023-02-11T02:00:17;6.50;99.90
59146;DHT22;44928;53.074;6.646;2023-02-11T02:03:16;6.50;99.90
59146;DHT22;44928;53.074;6.646;2023-02-11T02:05:57;6.40;99.90
59146;DHT22;44928;53.074;6.646;2023-02-11T02:08:47;6.40;99.90
59146;DHT22;44928;53.074;6.646;2023-02-11T02:11:15;6.40;99.90
59146;DHT22;44928;53.074;6.646;2023-02-11T02:13:41;6.40;99.90
59146;DHT22;44928;53.074;6.646;2023-02-11T02:16:12;6.40;99.90
59146;DHT22;44928;53.074;6.646;2023-02-11T02:27:23;6.50;99.90
59146;DHT22;44928;53.074;6.646;2023-02-11T02:38:07;6.40;99.90
59146;DHT22;44928;53.074;6.646;2023-02-11T02:40:51;6.50;99.90
59146;DHT22;44928;53.074;6.646;2023-02-11T02:43:20;6.50;99.90
59146;DHT22;44928;53.074;6.646;2023-02-11T02:45:47;6.50;99.90
59146;DHT22;44928;53.074;6.646;2023-02-11T02:56:36;6.70;99.90
59146;DHT22;44928;53.074;6.646;2023-02-11T02:59:21;6.70;99.90
59146;DHT22;44928;53.074;6.646;2023-02-11T03:12:02;6.80;99.90
59146;DHT22;44928;53.074;6.646;2023-02-11T03:14:29;6.90;99.90
59146;DHT22;44928;53.074;6.646;2023-02-11T03:16:58;6.90;99.90
59146;DHT22;44928;53.074;6.646;2023-02-11T03:19:29;6.90;99.90
59146;DHT22;44928;53.074;6.646;2023-02-11T03:21:56;6.80;99.90
59146;DHT22;44928;53.074;6.646;2023-02-11T03:24:31;6.80;99.90
59146;DHT22;44928;53.074;6.646;2023-02-11T03:27:24;6.90;99.90
59146;DHT22;44928;53.074;6.646;2023-02-11T03:30:10;6.90;99.90
59146;DHT22;44928;53.074;6.646;2023-02-11T03:32:41;6.90;99.90
59146;DHT22;44928;53.074;6.646;2023-02-11T03:35:16;6.90;99.90
59146;DHT22;44928;53.074;6.646;2023-02-11T03:37:52;6.90;99.90
59146;DHT22;44928;53.074;6.646;2023-02-11T03:40:28;6.90;99.90
59146;DHT22;44928;53.074;6.646;2023-02-11T03:43:00;6.90;99.90
59146;DHT22;44928;53.074;6.646;2023-02-11T03:45:26;6.90;99.90
59146;DHT22;44928;53.074;6.646;2023-02-11T03:48:21;6.90;99.90
59146;DHT22;44928;53.074;6.646;2023-02-11T03:50:50;6.90;99.90
59146;DHT22;44928;53.074;6.646;2023-02-11T03:53:19;7.00;99.90
59146;DHT22;44928;53.074;6.646;2023-02-11T03:55:46;6.90;99.90
59146;DHT22;44928;53.074;6.646;2023-02-11T03:58:13;6.90;99.90
59146;DHT22;44928;53.074;6.646;2023-02-11T04:00:40;7.00;99.90
59146;DHT22;44928;53.074;6.646;2023-02-11T04:03:07;7.00;99.90
59146;DHT22;44928;53.074;6.646;2023-02-11T04:05:34;7.00;99.90
59146;DHT22;44928;53.074;6.646;2023-02-11T04:08:00;7.00;99.90
59146;DHT22;44928;53.074;6.646;2023-02-11T04:10:26;7.00;99.90
59146;DHT22;44928;53.074;6.646;2023-02-11T04:12:52;7.00;99.90
59146;DHT22;44928;53.074;6.646;2023-02-11T04:15:18;7.00;99.90
59146;DHT22;44928;53.074;6.646;2023-02-11T04:17:44;7.10;99.90
59146;DHT22;44928;53.074;6.646;2023-02-11T04:20:10;7.10;99.90
59146;DHT22;44928;53.074;6.646;2023-02-11T04:22:36;7.10;99.90
59146;DHT22;44928;53.074;6.646;2023-02-11T04:25:03;7.10;99.90
59146;DHT22;44928;53.074;6.646;2023-02-11T04:27:29;7.10;99.90
59146;DHT22;44928;53.074;6.646;2023-02-11T04:29:55;7.10;99.90
59146;DHT22;44928;53.074;6.646;2023-02-11T04:32:21;7.10;99.90
59146;DHT22;44928;53.074;6.646;2023-02-11T04:34:47;7.10;99.90
59146;DHT22;44928;53.074;6.646;2023-02-11T04:37:13;7.10;99.90
59146;DHT22;44928;53.074;6.646;2023-02-11T04:39:39;7.20;99.90
59146;DHT22;44928;53.074;6.646;2023-02-11T04:42:05;7.10;99.90
59146;DHT22;44928;53.074;6.646;2023-02-11T04:44:31;7.10;99.90
59146;DHT22;44928;53.074;6.646;2023-02-11T04:46:57;7.20;99.90
59146;DHT22;44928;53.074;6.646;2023-02-11T04:49:23;7.10;99.90
59146;DHT22;44928;53.074;6.646;2023-02-11T04:51:48;7.20;99.90
59146;DHT22;44928;53.074;6.646;2023-02-11T04:54:14;7.20;99.90
59146;DHT22;44928;53.074;6.646;2023-02-11T04:56:40;7.20;99.90
59146;DHT22;44928;53.074;6.646;2023-02-11T04:59:06;7.20;99.90
59146;DHT22;44928;53.074;6.646;2023-02-11T05:01:32;7.20;99.90
59146;DHT22;44928;53.074;6.646;2023-02-11T05:03:58;7.20;99.90
59146;DHT22;44928;53.074;6.646;2023-02-11T05:06:24;7.20;99.90
59146;DHT22;44928;53.074;6.646;2023-02-11T05:08:49;7.20;99.90
59146;DHT22;44928;53.074;6.646;2023-02-11T05:11:21;7.20;99.90
59146;DHT22;44928;53.074;6.646;2023-02-11T05:13:47;7.20;99.90
59146;DHT22;44928;53.074;6.646;2023-02-11T05:16:14;7.20;99.90
59146;DHT22;44928;53.074;6.646;2023-02-11T05:18:41;7.20;99.90
59146;DHT22;44928;53.074;6.646;2023-02-11T05:21:10;7.20;99.90
59146;DHT22;44928;53.074;6.646;2023-02-11T05:23:37;7.20;99.90
59146;DHT22;44928;53.074;6.646;2023-02-11T05:26:03;7.10;99.90
59146;DHT22;44928;53.074;6.646;2023-02-11T05:28:29;7.10;99.90
59146;DHT22;44928;53.074;6.646;2023-02-11T05:30:55;7.10;99.90
59146;DHT22;44928;53.074;6.646;2023-02-11T05:33:21;7.10;99.90
59146;DHT22;44928;53.074;6.646;2023-02-11T05:35:47;7.10;99.90
59146;DHT22;44928;53.074;6.646;2023-02-11T05:38:13;7.10;99.90
59146;DHT22;44928;53.074;6.646;2023-02-11T05:40:39;7.10;99.90
59146;DHT22;44928;53.074;6.646;2023-02-11T05:43:05;7.10;99.90
59146;DHT22;44928;53.074;6.646;2023-02-11T05:45:32;7.10;99.90
59146;DHT22;44928;53.074;6.646;2023-02-11T05:47:58;7.00;99.90
59146;DHT22;44928;53.074;6.646;2023-02-11T05:50:24;7.00;99.90
59146;DHT22;44928;53.074;6.646;2023-02-11T05:52:50;7.00;99.90
59146;DHT22;44928;53.074;6.646;2023-02-11T05:55:16;7.00;99.90
59146;DHT22;44928;53.074;6.646;2023-02-11T05:57:41;7.00;99.90
59146;DHT22;44928;53.074;6.646;2023-02-11T06:00:09;7.00;99.90
59146;DHT22;44928;53.074;6.646;2023-02-11T06:02:35;7.00;99.90
59146;DHT22;44928;53.074;6.646;2023-02-11T06:05:00;7.00;99.90
59146;DHT22;44928;53.074;6.646;2023-02-11T06:07:26;7.00;99.90
59146;DHT22;44928;53.074;6.646;2023-02-11T06:09:52;7.00;99.90
59146;DHT22;44928;53.074;6.646;2023-02-11T06:12:18;7.00;99.90
59146;DHT22;44928;53.074;6.646;2023-02-11T06:14:43;7.00;99.90
59146;DHT22;44928;53.074;6.646;2023-02-11T06:17:09;7.00;99.90
59146;DHT22;44928;53.074;6.646;2023-02-11T06:19:35;7.00;99.90
59146;DHT22;44928;53.074;6.646;2023-02-11T06:22:01;7.00;99.90
59146;DHT22;44928;53.074;6.646;2023-02-11T06:24:27;7.00;99.90
59146;DHT22;44928;53.074;6.646;2023-02-11T06:26:52;7.00;99.90
59146;DHT22;44928;53.074;6.646;2023-02-11T06:29:18;7.00;99.90
59146;DHT22;44928;53.074;6.646;2023-02-11T06:31:44;7.00;99.90
59146;DHT22;44928;53.074;6.646;2023-02-11T06:34:10;7.00;99.90
59146;DHT22;44928;53.074;6.646;2023-02-11T06:36:37;7.00;99.90
59146;DHT22;44928;53.074;6.646;2023-02-11T06:39:03;6.90;99.90
59146;DHT22;44928;53.074;6.646;2023-02-11T06:41:29;6.90;99.90
59146;DHT22;44928;53.074;6.646;2023-02-11T06:43:55;6.90;99.90
59146;DHT22;44928;53.074;6.646;2023-02-11T06:46:21;6.90;99.90
59146;DHT22;44928;53.074;6.646;2023-02-11T06:48:47;6.90;99.90
59146;DHT22;44928;53.074;6.646;2023-02-11T06:51:14;6.90;99.90
59146;DHT22;44928;53.074;6.646;2023-02-11T06:53:42;6.90;99.90
59146;DHT22;44928;53.074;6.646;2023-02-11T06:56:11;6.90;99.90
59146;DHT22;44928;53.074;6.646;2023-02-11T06:58:37;6.90;99.90
59146;DHT22;44928;53.074;6.646;2023-02-11T07:01:05;6.80;99.90
59146;DHT22;44928;53.074;6.646;2023-02-11T07:03:34;6.80;99.90
59146;DHT22;44928;53.074;6.646;2023-02-11T07:06:02;6.80;99.90
59146;DHT22;44928;53.074;6.646;2023-02-11T07:08:28;6.80;99.90
59146;DHT22;44928;53.074;6.646;2023-02-11T07:10:54;6.70;99.90
59146;DHT22;44928;53.074;6.646;2023-02-11T07:13:19;6.70;99.90
59146;DHT22;44928;53.074;6.646;2023-02-11T07:15:45;6.70;99.90
59146;DHT22;44928;53.074;6.646;2023-02-11T07:18:11;6.70;99.90
59146;DHT22;44928;53.074;6.646;2023-02-11T07:20:37;6.60;99.90
59146;DHT22;44928;53.074;6.646;2023-02-11T07:23:06;6.70;99.90
59146;DHT22;44928;53.074;6.646;2023-02-11T07:25:32;6.60;99.90
59146;DHT22;44928;53.074;6.646;2023-02-11T07:27:58;6.60;99.90
59146;DHT22;44928;53.074;6.646;2023-02-11T07:30:24;6.60;99.90
59146;DHT22;44928;53.074;6.646;2023-02-11T07:32:49;6.60;99.90
59146;DHT22;44928;53.074;6.646;2023-02-11T07:35:15;6.60;99.90
59146;DHT22;44928;53.074;6.646;2023-02-11T07:37:41;6.60;99.90
59146;DHT22;44928;53.074;6.646;2023-02-11T07:40:07;6.70;99.90
59146;DHT22;44928;53.074;6.646;2023-02-11T07:42:34;6.70;99.90
59146;DHT22;44928;53.074;6.646;2023-02-11T07:45:00;6.70;99.90
59146;DHT22;44928;53.074;6.646;2023-02-11T07:47:26;6.80;99.90
59146;DHT22;44928;53.074;6.646;2023-02-11T07:49:52;6.80;99.90
59146;DHT22;44928;53.074;6.646;2023-02-11T07:52:18;6.80;99.90
59146;DHT22;44928;53.074;6.646;2023-02-11T07:54:44;6.80;99.90
59146;DHT22;44928;53.074;6.646;2023-02-11T07:57:09;6.80;99.90
59146;DHT22;44928;53.074;6.646;2023-02-11T07:59:35;6.80;99.90
59146;DHT22;44928;53.074;6.646;2023-02-11T08:02:01;6.90;99.90
59146;DHT22;44928;53.074;6.646;2023-02-11T08:04:27;6.90;99.90
59146;DHT22;44928;53.074;6.646;2023-02-11T08:06:53;6.90;99.90
59146;DHT22;44928;53.074;6.646;2023-02-11T08:09:22;7.00;99.90
59146;DHT22;44928;53.074;6.646;2023-02-11T08:11:47;7.00;99.90
59146;DHT22;44928;53.074;6.646;2023-02-11T08:14:13;7.00;99.90
59146;DHT22;44928;53.074;6.646;2023-02-11T08:16:40;7.00;99.90
59146;DHT22;44928;53.074;6.646;2023-02-11T08:19:16;7.00;99.90
59146;DHT22;44928;53.074;6.646;2023-02-11T08:21:42;7.10;99.90
59146;DHT22;44928;53.074;6.646;2023-02-11T08:24:08;7.10;99.90
59146;DHT22;44928;53.074;6.646;2023-02-11T08:26:34;7.10;99.90
59146;DHT22;44928;53.074;6.646;2023-02-11T08:29:04;7.10;99.90
59146;DHT22;44928;53.074;6.646;2023-02-11T08:31:36;7.10;99.90
59146;DHT22;44928;53.074;6.646;2023-02-11T08:34:03;7.10;99.90
59146;DHT22;44928;53.074;6.646;2023-02-11T08:36:31;7.20;99.90
59146;DHT22;44928;53.074;6.646;2023-02-11T08:38:58;7.20;99.90
59146;DHT22;44928;53.074;6.646;2023-02-11T08:41:26;7.20;99.90
59146;DHT22;44928;53.074;6.646;2023-02-11T08:43:52;7.30;99.90
59146;DHT22;44928;53.074;6.646;2023-02-11T08:46:19;7.30;99.90
59146;DHT22;44928;53.074;6.646;2023-02-11T08:48:46;7.30;99.90
59146;DHT22;44928;53.074;6.646;2023-02-11T08:51:18;7.30;99.90
59146;DHT22;44928;53.074;6.646;2023-02-11T08:53:45;7.30;99.90
59146;DHT22;44928;53.074;6.646;2023-02-11T08:56:11;7.30;99.90
59146;DHT22;44928;53.074;6.646;2023-02-11T08:58:38;7.40;99.90
59146;DHT22;44928;53.074;6.646;2023-02-11T09:01:13;7.40;99.90
59146;DHT22;44928;53.074;6.646;2023-02-11T09:03:39;7.50;99.90
59146;DHT22;44928;53.074;6.646;2023-02-11T09:06:06;7.50;99.90
59146;DHT22;44928;53.074;6.646;2023-02-11T09:08:37;7.50;99.90
59146;DHT22;44928;53.074;6.646;2023-02-11T09:11:04;7.60;99.90
59146;DHT22;44928;53.074;6.646;2023-02-11T09:13:31;7.60;99.90
59146;DHT22;44928;53.074;6.646;2023-02-11T09:15:58;7.60;99.90
59146;DHT22;44928;53.074;6.646;2023-02-11T09:18:24;7.70;99.90
59146;DHT22;44928;53.074;6.646;2023-02-11T09:20:50;7.70;99.90
59146;DHT22;44928;53.074;6.646;2023-02-11T09:23:16;7.80;99.90
59146;DHT22;44928;53.074;6.646;2023-02-11T09:25:42;7.80;99.90
59146;DHT22;44928;53.074;6.646;2023-02-11T09:28:08;7.80;99.90
59146;DHT22;44928;53.074;6.646;2023-02-11T09:30:36;7.90;99.90
59146;DHT22;44928;53.074;6.646;2023-02-11T09:33:02;7.90;99.90
59146;DHT22;44928;53.074;6.646;2023-02-11T09:35:28;8.00;99.90
59146;DHT22;44928;53.074;6.646;2023-02-11T09:37:54;8.00;99.90
59146;DHT22;44928;53.074;6.646;2023-02-11T09:40:21;8.00;99.90
59146;DHT22;44928;53.074;6.646;2023-02-11T09:42:55;8.10;99.90
59146;DHT22;44928;53.074;6.646;2023-02-11T09:45:28;8.10;99.90
59146;DHT22;44928;53.074;6.646;2023-02-11T09:47:55;8.10;99.90
59146;DHT22;44928;53.074;6.646;2023-02-11T09:50:29;8.20;99.90
59146;DHT22;44928;53.074;6.646;2023-02-11T09:55:48;8.20;99.90
59146;DHT22;44928;53.074;6.646;2023-02-11T09:58:25;8.30;99.90
59146;DHT22;44928;53.074;6.646;2023-02-11T10:12:24;8.50;99.90
59146;DHT22;44928;53.074;6.646;2023-02-11T10:15:06;8.60;99.90
59146;DHT22;44928;53.074;6.646;2023-02-11T10:22:57;8.60;99.90
59146;DHT22;44928;53.074;6.646;2023-02-11T10:27:52;8.60;99.90
59146;DHT22;44928;53.074;6.646;2023-02-11T10:33:55;8.70;99.90
59146;DHT22;44928;53.074;6.646;2023-02-11T10:35:50;8.80;99.90
59146;DHT22;44928;53.074;6.646;2023-02-11T10:38:17;8.80;99.90
59146;DHT22;44928;53.074;6.646;2023-02-11T10:40:46;8.80;99.90
59146;DHT22;44928;53.074;6.646;2023-02-11T10:43:14;8.90;99.90
59146;DHT22;44928;53.074;6.646;2023-02-11T10:45:47;8.90;99.90
59146;DHT22;44928;53.074;6.646;2023-02-11T10:48:42;8.90;99.90
59146;DHT22;44928;53.074;6.646;2023-02-11T10:51:29;8.90;99.90
59146;DHT22;44928;53.074;6.646;2023-02-11T10:59:25;9.10;99.90
59146;DHT22;44928;53.074;6.646;2023-02-11T11:01:57;9.10;99.90
59146;DHT22;44928;53.074;6.646;2023-02-11T11:06:50;9.20;99.90
59146;DHT22;44928;53.074;6.646;2023-02-11T11:09:30;9.30;99.90
59146;DHT22;44928;53.074;6.646;2023-02-11T11:14:58;9.40;99.90
59146;DHT22;44928;53.074;6.646;2023-02-11T11:17:25;9.50;99.90
59146;DHT22;44928;53.074;6.646;2023-02-11T11:20:13;9.50;99.90
59146;DHT22;44928;53.074;6.646;2023-02-11T11:22:40;9.60;99.90
59146;DHT22;44928;53.074;6.646;2023-02-11T11:25:21;9.60;99.90
59146;DHT22;44928;53.074;6.646;2023-02-11T11:27:52;9.60;99.90
59146;DHT22;44928;53.074;6.646;2023-02-11T11:30:19;9.60;99.90
59146;DHT22;44928;53.074;6.646;2023-02-11T11:32:45;9.70;99.90
59146;DHT22;44928;53.074;6.646;2023-02-11T11:35:27;9.70;99.90
59146;DHT22;44928;53.074;6.646;2023-02-11T11:37:59;9.80;99.90
59146;DHT22;44928;53.074;6.646;2023-02-11T11:40:30;9.80;99.90
59146;DHT22;44928;53.074;6.646;2023-02-11T11:45:37;9.80;99.90
59146;DHT22;44928;53.074;6.646;2023-02-11T11:48:13;9.90;99.90
59146;DHT22;44928;53.074;6.646;2023-02-11T11:50:55;9.90;99.90
59146;DHT22;44928;53.074;6.646;2023-02-11T11:53:50;9.90;99.90
59146;DHT22;44928;53.074;6.646;2023-02-11T11:56:24;10.00;99.90
59146;DHT22;44928;53.074;6.646;2023-02-11T11:58:51;10.00;99.90
59146;DHT22;44928;53.074;6.646;2023-02-11T12:04:41;10.00;99.90
59146;DHT22;44928;53.074;6.646;2023-02-11T12:07:24;10.00;99.90
59146;DHT22;44928;53.074;6.646;2023-02-11T12:18:03;10.10;99.90
59146;DHT22;44928;53.074;6.646;2023-02-11T12:26:45;10.20;99.90
59146;DHT22;44928;53.074;6.646;2023-02-11T12:36:04;10.20;99.90
59146;DHT22;44928;53.074;6.646;2023-02-11T12:38:51;10.30;99.90
59146;DHT22;44928;53.074;6.646;2023-02-11T12:44:54;10.30;99.90
59146;DHT22;44928;53.074;6.646;2023-02-11T12:50:22;10.30;99.90
59146;DHT22;44928;53.074;6.646;2023-02-11T12:55:45;10.30;99.90
59146;DHT22;44928;53.074;6.646;2023-02-11T12:58:15;10.40;99.90
59146;DHT22;44928;53.074;6.646;2023-02-11T13:00:55;10.50;99.90
59146;DHT22;44928;53.074;6.646;2023-02-11T13:03:28;10.50;99.90
59146;DHT22;44928;53.074;6.646;2023-02-11T13:06:11;10.40;99.90
59146;DHT22;44928;53.074;6.646;2023-02-11T13:08:45;10.50;99.90
59146;DHT22;44928;53.074;6.646;2023-02-11T13:11:28;10.50;99.90
59146;DHT22;44928;53.074;6.646;2023-02-11T13:30:23;10.60;99.90
59146;DHT22;44928;53.074;6.646;2023-02-11T13:38:02;10.60;99.90
59146;DHT22;44928;53.074;6.646;2023-02-11T13:40:35;10.60;99.90
59146;DHT22;44928;53.074;6.646;2023-02-11T13:43:03;10.50;99.90
59146;DHT22;44928;53.074;6.646;2023-02-11T13:45:35;10.50;99.90
59146;DHT22;44928;53.074;6.646;2023-02-11T13:48:05;10.60;99.90
59146;DHT22;44928;53.074;6.646;2023-02-11T13:50:36;10.50;99.90
59146;DHT22;44928;53.074;6.646;2023-02-11T13:53:05;10.60;99.90
59146;DHT22;44928;53.074;6.646;2023-02-11T13:55:34;10.60;99.90
59146;DHT22;44928;53.074;6.646;2023-02-11T14:14:13;10.40;99.90
59146;DHT22;44928;53.074;6.646;2023-02-11T14:19:35;10.50;99.90
59146;DHT22;44928;53.074;6.646;2023-02-11T14:22:04;10.40;99.90
59146;DHT22;44928;53.074;6.646;2023-02-11T14:27:09;10.40;99.90
59146;DHT22;44928;53.074;6.646;2023-02-11T14:35:26;10.40;99.90
59146;DHT22;44928;53.074;6.646;2023-02-11T14:41:21;10.30;99.90
59146;DHT22;44928;53.074;6.646;2023-02-11T14:43:59;10.30;99.90
59146;DHT22;44928;53.074;6.646;2023-02-11T14:46:27;10.20;99.90
59146;DHT22;44928;53.074;6.646;2023-02-11T14:48:57;10.30;99.90
59146;DHT22;44928;53.074;6.646;2023-02-11T14:51:27;10.20;99.90
59146;DHT22;44928;53.074;6.646;2023-02-11T14:54:04;10.20;99.90
59146;DHT22;44928;53.074;6.646;2023-02-11T14:56:35;10.20;99.90
59146;DHT22;44928;53.074;6.646;2023-02-11T14:59:01;10.20;99.90
59146;DHT22;44928;53.074;6.646;2023-02-11T15:01:38;10.10;99.90
59146;DHT22;44928;53.074;6.646;2023-02-11T15:04:25;10.10;99.90
59146;DHT22;44928;53.074;6.646;2023-02-11T15:06:52;10.10;99.90
59146;DHT22;44928;53.074;6.646;2023-02-11T15:09:23;10.10;99.90
59146;DHT22;44928;53.074;6.646;2023-02-11T15:11:54;10.10;99.90
59146;DHT22;44928;53.074;6.646;2023-02-11T15:14:25;10.10;99.90
59146;DHT22;44928;53.074;6.646;2023-02-11T15:16:57;10.10;99.90
59146;DHT22;44928;53.074;6.646;2023-02-11T15:19:30;10.10;99.90
59146;DHT22;44928;53.074;6.646;2023-02-11T15:21:57;10.10;99.90
59146;DHT22;44928;53.074;6.646;2023-02-11T15:24:29;10.10;99.90
59146;DHT22;44928;53.074;6.646;2023-02-11T15:27:01;10.00;99.90
59146;DHT22;44928;53.074;6.646;2023-02-11T15:29:35;10.00;99.90
59146;DHT22;44928;53.074;6.646;2023-02-11T15:32:06;10.00;99.90
59146;DHT22;44928;53.074;6.646;2023-02-11T15:34:36;10.00;99.90
59146;DHT22;44928;53.074;6.646;2023-02-11T15:37:05;10.00;99.90
59146;DHT22;44928;53.074;6.646;2023-02-11T15:39:39;10.00;99.90
59146;DHT22;44928;53.074;6.646;2023-02-11T15:44:48;10.00;99.90
59146;DHT22;44928;53.074;6.646;2023-02-11T15:47:18;10.00;99.90
59146;DHT22;44928;53.074;6.646;2023-02-11T15:49:45;10.00;99.90
59146;DHT22;44928;53.074;6.646;2023-02-11T15:52:22;9.90;99.90
59146;DHT22;44928;53.074;6.646;2023-02-11T15:54:49;10.00;99.90
59146;DHT22;44928;53.074;6.646;2023-02-11T15:57:16;9.90;99.90
59146;DHT22;44928;53.074;6.646;2023-02-11T15:59:49;9.90;99.90
59146;DHT22;44928;53.074;6.646;2023-02-11T16:02:33;9.90;99.90
59146;DHT22;44928;53.074;6.646;2023-02-11T16:05:22;9.90;99.90
59146;DHT22;44928;53.074;6.646;2023-02-11T16:07:49;9.90;99.90
59146;DHT22;44928;53.074;6.646;2023-02-11T16:18:04;9.90;99.90
59146;DHT22;44928;53.074;6.646;2023-02-11T16:20:37;9.80;99.90
59146;DHT22;44928;53.074;6.646;2023-02-11T16:23:04;9.80;99.90
59146;DHT22;44928;53.074;6.646;2023-02-11T16:25:34;9.80;99.90
59146;DHT22;44928;53.074;6.646;2023-02-11T16:28:00;9.80;99.90
59146;DHT22;44928;53.074;6.646;2023-02-11T16:30:37;9.80;99.90
59146;DHT22;44928;53.074;6.646;2023-02-11T16:33:03;9.70;99.90
59146;DHT22;44928;53.074;6.646;2023-02-11T16:35:30;9.70;99.90
59146;DHT22;44928;53.074;6.646;2023-02-11T16:37:56;9.70;99.90
59146;DHT22;44928;53.074;6.646;2023-02-11T16:40:22;9.70;99.90
59146;DHT22;44928;53.074;6.646;2023-02-11T16:42:50;9.70;99.90
59146;DHT22;44928;53.074;6.646;2023-02-11T16:45:18;9.60;99.90
59146;DHT22;44928;53.074;6.646;2023-02-11T16:47:43;9.60;99.90
59146;DHT22;44928;53.074;6.646;2023-02-11T16:50:19;9.60;99.90
59146;DHT22;44928;53.074;6.646;2023-02-11T16:52:46;9.60;99.90
59146;DHT22;44928;53.074;6.646;2023-02-11T16:55:12;9.60;99.90
59146;DHT22;44928;53.074;6.646;2023-02-11T16:57:38;9.50;99.90
59146;DHT22;44928;53.074;6.646;2023-02-11T17:00:05;9.60;99.90
59146;DHT22;44928;53.074;6.646;2023-02-11T17:02:36;9.60;99.90
59146;DHT22;44928;53.074;6.646;2023-02-11T17:05:05;9.60;99.90
59146;DHT22;44928;53.074;6.646;2023-02-11T17:07:33;9.60;99.90
59146;DHT22;44928;53.074;6.646;2023-02-11T17:09:59;9.60;99.90
59146;DHT22;44928;53.074;6.646;2023-02-11T17:12:25;9.60;99.90
59146;DHT22;44928;53.074;6.646;2023-02-11T17:14:52;9.60;99.90
59146;DHT22;44928;53.074;6.646;2023-02-11T17:17:17;9.50;99.90
59146;DHT22;44928;53.074;6.646;2023-02-11T17:19:43;9.50;99.90
59146;DHT22;44928;53.074;6.646;2023-02-11T17:22:10;9.60;99.90
59146;DHT22;44928;53.074;6.646;2023-02-11T17:24:36;9.60;99.90
59146;DHT22;44928;53.074;6.646;2023-02-11T17:27:02;9.60;99.90
59146;DHT22;44928;53.074;6.646;2023-02-11T17:29:28;9.50;99.90
59146;DHT22;44928;53.074;6.646;2023-02-11T17:31:54;9.50;99.90
59146;DHT22;44928;53.074;6.646;2023-02-11T17:34:20;9.50;99.90
59146;DHT22;44928;53.074;6.646;2023-02-11T17:36:47;9.50;99.90
59146;DHT22;44928;53.074;6.646;2023-02-11T17:39:12;9.50;99.90
59146;DHT22;44928;53.074;6.646;2023-02-11T17:41:39;9.40;99.90
59146;DHT22;44928;53.074;6.646;2023-02-11T17:44:05;9.40;99.90
59146;DHT22;44928;53.074;6.646;2023-02-11T17:46:33;9.50;99.90
59146;DHT22;44928;53.074;6.646;2023-02-11T17:48:59;9.40;99.90
59146;DHT22;44928;53.074;6.646;2023-02-11T17:51:33;9.40;99.90
59146;DHT22;44928;53.074;6.646;2023-02-11T17:54:03;9.40;99.90
59146;DHT22;44928;53.074;6.646;2023-02-11T17:56:34;9.40;99.90
59146;DHT22;44928;53.074;6.646;2023-02-11T17:59:00;9.40;99.90
59146;DHT22;44928;53.074;6.646;2023-02-11T18:01:31;9.30;99.90
59146;DHT22;44928;53.074;6.646;2023-02-11T18:03:58;9.30;99.90
59146;DHT22;44928;53.074;6.646;2023-02-11T18:06:24;9.20;99.90
59146;DHT22;44928;53.074;6.646;2023-02-11T18:08:49;9.20;99.90
59146;DHT22;44928;53.074;6.646;2023-02-11T18:11:16;9.20;99.90
59146;DHT22;44928;53.074;6.646;2023-02-11T18:13:44;9.20;99.90
59146;DHT22;44928;53.074;6.646;2023-02-11T18:16:10;9.10;99.90
59146;DHT22;44928;53.074;6.646;2023-02-11T18:18:43;9.00;99.90
59146;DHT22;44928;53.074;6.646;2023-02-11T18:21:13;9.00;99.90
59146;DHT22;44928;53.074;6.646;2023-02-11T18:23:39;9.00;99.90
59146;DHT22;44928;53.074;6.646;2023-02-11T18:26:10;8.90;99.90
59146;DHT22;44928;53.074;6.646;2023-02-11T18:28:37;8.90;99.90
59146;DHT22;44928;53.074;6.646;2023-02-11T18:31:04;8.90;99.90
59146;DHT22;44928;53.074;6.646;2023-02-11T18:33:30;8.90;99.90
59146;DHT22;44928;53.074;6.646;2023-02-11T18:35:56;8.80;99.90
59146;DHT22;44928;53.074;6.646;2023-02-11T18:38:23;8.90;99.90
59146;DHT22;44928;53.074;6.646;2023-02-11T18:40:49;8.90;99.90
59146;DHT22;44928;53.074;6.646;2023-02-11T18:43:17;8.90;99.90
59146;DHT22;44928;53.074;6.646;2023-02-11T18:45:47;8.90;99.90
59146;DHT22;44928;53.074;6.646;2023-02-11T18:48:14;8.80;99.90